createdAt,value
2019-01-23T00:01:51.742Z,10.43
2019-01-23T00:04:58.211Z,10.80
2019-01-23T00:28:48.110Z,12.57
2019-01-23T00:35:09.977Z,11.47
2019-01-23T00:38:10.718Z,11.47
2019-01-23T00:41:11.420Z,12.87
2019-01-23T00:46:56.928Z,11.53
2019-01-23T00:52:42.745Z,15.90
2019-01-23T00:58:28.387Z,11.87
2019-01-23T01:01:32.076Z,13.27
2019-01-23T01:07:17.734Z,12.10
2019-01-23T01:13:02.440Z,12.57
2019-01-23T01:28:13.972Z,11.97
2019-01-23T01:37:02.597Z,13.27
2019-01-23T01:43:39.862Z,11.87
2019-01-23T01:56:13.987Z,11.90
2019-01-23T01:59:34.295Z,12.17
2019-01-23T02:02:35.687Z,11.30
2019-01-23T02:05:55.152Z,12.93
2019-01-23T02:08:55.766Z,12.07
2019-01-23T02:18:39.898Z,11.83
2019-01-23T02:21:40.637Z,11.50
2019-01-23T02:24:46.698Z,11.73
2019-01-23T02:31:23.123Z,12.23
2019-01-23T02:34:22.960Z,12.97
2019-01-23T02:40:07.650Z,12.93
2019-01-23T02:45:52.525Z,12.00
2019-01-23T02:51:41.259Z,12.77
2019-01-23T02:57:32.666Z,12.07
2019-01-23T03:00:51.043Z,12.87
2019-01-23T03:09:41.029Z,12.10
2019-01-23T03:12:46.717Z,12.33
2019-01-23T03:18:31.556Z,12.00
2019-01-23T03:21:51.212Z,13.70
2019-01-23T03:24:52.592Z,13.10
2019-01-23T03:27:53.263Z,12.90
2019-01-23T03:31:11.803Z,12.47
2019-01-23T03:34:12.427Z,12.43
2019-01-23T03:39:55.971Z,13.43
2019-01-23T03:46:21.894Z,13.23
2019-01-23T03:59:36.495Z,13.30
2019-01-23T04:05:28.374Z,12.53
2019-01-23T04:11:15.427Z,13.73
2019-01-23T04:14:16.973Z,13.67
2019-01-23T04:20:23.406Z,13.70
2019-01-23T04:27:01.540Z,13.20
2019-01-23T04:30:21.111Z,13.73
2019-01-23T04:36:09.173Z,13.47
2019-01-23T04:42:00.191Z,13.50
2019-01-23T04:45:00.840Z,13.83
2019-01-23T04:54:52.295Z,12.97
2019-01-23T05:01:40.971Z,12.60
2019-01-23T05:08:20.070Z,13.90
2019-01-23T05:11:39.467Z,13.03
2019-01-23T05:17:24.444Z,13.90
2019-01-23T05:26:20.375Z,12.77
2019-01-23T05:29:24.487Z,13.80
2019-01-23T05:32:44.241Z,12.43
2019-01-23T05:38:29.106Z,13.67
2019-01-23T05:44:20.618Z,13.50
2019-01-23T05:53:11.439Z,14.33
2019-01-23T05:56:12.100Z,13.83
2019-01-23T05:59:15.753Z,13.43
2019-01-23T06:02:35.459Z,15.20
2019-01-23T06:15:18.557Z,13.27
2019-01-23T06:21:49.456Z,16.90
2019-01-23T06:27:36.173Z,14.03
2019-01-23T06:33:16.511Z,12.97
2019-01-23T06:36:23.113Z,12.97
2019-01-23T06:43:32.654Z,15.13
2019-01-23T06:59:56.614Z,16.23
2019-01-23T07:06:21.046Z,12.93
2019-01-23T07:09:24.624Z,14.07
2019-01-23T07:15:09.873Z,13.93
2019-01-23T07:20:59.511Z,14.47
2019-01-23T07:27:30.494Z,14.77
2019-01-23T07:30:53.180Z,13.60
2019-01-23T07:36:39.999Z,13.07
2019-01-23T07:42:49.368Z,13.67
2019-01-23T07:48:33.843Z,14.73
2019-01-23T07:51:33.057Z,13.83
2019-01-23T08:04:05.039Z,14.37
2019-01-23T08:07:24.536Z,16.13
2019-01-23T08:13:11.708Z,15.83
2019-01-23T08:22:23.341Z,14.70
2019-01-23T08:28:34.141Z,13.90
2019-01-23T08:31:34.518Z,15.27
2019-01-23T08:34:35.326Z,14.67
2019-01-23T08:50:17.122Z,15.40
2019-01-23T08:56:00.925Z,14.33
2019-01-23T09:02:40.682Z,13.77
2019-01-23T09:06:00.187Z,14.17
2019-01-23T09:11:45.174Z,14.50
2019-01-23T09:17:52.825Z,15.03
2019-01-23T09:20:54.111Z,13.50
2019-01-23T09:27:19.187Z,14.80
2019-01-23T09:33:10.787Z,15.80
2019-01-23T09:36:30.405Z,14.97
2019-01-23T09:42:15.361Z,14.03
2019-01-23T09:47:59.635Z,14.77
2019-01-23T09:53:45.102Z,15.00
2019-01-23T09:59:36.643Z,15.30
2019-01-23T10:05:25.546Z,15.10
2019-01-23T10:08:27.770Z,13.60
2019-01-23T10:11:34.643Z,14.77
2019-01-23T10:14:35.403Z,14.83
2019-01-23T10:20:24.225Z,14.47
2019-01-23T10:26:14.919Z,15.67
2019-01-23T10:32:00.631Z,15.20
2019-01-23T10:37:46.395Z,14.07
2019-01-23T10:43:33.308Z,14.00
2019-01-23T10:49:18.928Z,13.77
2019-01-23T10:52:20.331Z,14.67
2019-01-23T10:58:06.186Z,14.13
2019-01-23T11:03:50.605Z,13.80
2019-01-23T11:09:36.775Z,14.13
2019-01-23T11:18:27.997Z,14.10
2019-01-23T11:21:27.502Z,13.07
2019-01-23T11:24:29.023Z,13.90
2019-01-23T11:30:14.867Z,14.17
2019-01-23T11:36:00.513Z,13.00
2019-01-23T11:41:46.086Z,13.73
2019-01-23T11:44:48.302Z,12.33
2019-01-23T11:53:45.256Z,12.23
2019-01-23T11:56:45.911Z,12.63
2019-01-23T12:02:36.451Z,12.93
2019-01-23T12:09:02.590Z,13.27
2019-01-23T12:12:06.151Z,11.90
2019-01-23T12:17:58.081Z,11.00
2019-01-23T12:30:33.632Z,12.10
2019-01-23T12:33:35.086Z,12.03
2019-01-23T12:40:15.354Z,12.17
2019-01-23T12:43:17.114Z,14.40
2019-01-23T12:49:01.867Z,13.80
2019-01-23T12:54:48.318Z,13.97
2019-01-23T13:00:34.576Z,14.30
2019-01-23T13:06:21.088Z,14.07
2019-01-23T13:12:06.327Z,14.23
2019-01-23T13:15:07.535Z,13.97
2019-01-23T13:20:53.583Z,14.23
2019-01-23T13:26:38.474Z,13.57
2019-01-23T13:32:24.849Z,13.93
2019-01-23T13:35:26.283Z,14.20
2019-01-23T13:41:12.079Z,14.63
2019-01-23T13:46:57.759Z,14.73
2019-01-23T13:52:43.550Z,14.60
2019-01-23T13:58:28.938Z,14.70
2019-01-23T14:01:29.655Z,14.37
2019-01-23T14:07:16.404Z,14.97
2019-01-23T14:12:56.771Z,15.03
2019-01-23T14:18:41.747Z,14.73
2019-01-23T14:24:27.535Z,14.53
2019-01-23T14:30:13.115Z,13.80
2019-01-23T14:35:59.441Z,14.57
2019-01-23T14:39:00.016Z,14.90
2019-01-23T14:44:45.801Z,14.17
2019-01-23T14:50:27.297Z,14.97
2019-01-23T14:56:12.794Z,14.07
2019-01-23T15:01:58.981Z,15.27
2019-01-23T15:07:44.043Z,15.30
2019-01-23T15:10:45.494Z,21.27
2019-01-23T15:16:31.247Z,16.87
2019-01-23T15:22:14.667Z,14.57
2019-01-23T15:25:15.942Z,14.80
2019-01-23T15:28:16.980Z,15.40
2019-01-23T15:34:02.792Z,16.07
2019-01-23T15:37:04.335Z,15.50
2019-01-23T15:42:51.098Z,14.70
2019-01-23T15:48:36.908Z,15.80
2019-01-23T15:54:22.506Z,14.67
2019-01-23T16:00:09.043Z,14.90
2019-01-23T16:03:10.324Z,15.10
2019-01-23T16:08:56.320Z,15.70
2019-01-23T16:14:43.487Z,15.70
2019-01-23T16:20:30.211Z,15.53
2019-01-23T16:26:15.137Z,16.40
2019-01-23T16:32:31.483Z,15.67
2019-01-23T16:35:28.482Z,15.87
2019-01-23T16:41:13.384Z,16.03
2019-01-23T16:46:58.277Z,18.17
2019-01-23T16:52:44.429Z,16.60
2019-01-23T16:58:29.126Z,17.00
2019-01-23T17:01:29.790Z,17.00
2019-01-23T17:07:14.584Z,17.13
2019-01-23T17:13:01.098Z,18.17
2019-01-23T17:18:47.456Z,19.47
2019-01-23T17:24:33.086Z,18.83
2019-01-23T17:27:34.503Z,17.53
2019-01-23T17:33:20.104Z,18.87
2019-01-23T17:39:06.578Z,20.83
2019-01-23T17:44:52.538Z,21.90
2019-01-23T17:50:38.099Z,20.80
2019-01-23T17:53:39.714Z,30.92
2019-01-23T17:59:25.544Z,24.97
2019-01-23T18:05:11.033Z,23.27
2019-01-23T18:11:02.455Z,23.30
2019-01-23T18:16:48.963Z,22.53
2019-01-23T18:22:35.401Z,24.17
2019-01-23T18:25:34.818Z,21.60
2019-01-23T18:31:20.443Z,23.30
2019-01-23T18:37:05.809Z,23.20
2019-01-23T18:42:50.689Z,21.50
2019-01-23T18:45:51.906Z,23.07
2019-01-23T18:55:02.221Z,33.98
2019-01-23T18:58:02.692Z,25.00
2019-01-23T19:03:48.482Z,23.00
2019-01-23T19:06:49.682Z,22.57
2019-01-23T19:12:35.287Z,22.57
2019-01-23T19:18:21.230Z,21.93
2019-01-23T19:24:13.593Z,19.93
2019-01-23T19:29:59.444Z,19.03
2019-01-23T19:33:00.178Z,30.32
2019-01-23T19:36:20.308Z,23.27
2019-01-23T19:39:21.792Z,22.47
2019-01-23T19:45:13.828Z,21.53
2019-01-23T19:50:59.529Z,19.50
2019-01-23T19:54:00.774Z,20.60
2019-01-23T20:02:49.189Z,19.67
2019-01-23T20:05:57.219Z,20.43
2019-01-23T20:11:43.309Z,21.60
2019-01-23T20:18:08.927Z,23.92
2019-01-23T20:21:10.340Z,21.37
2019-01-23T20:26:56.006Z,21.03
2019-01-23T20:32:41.791Z,22.87
2019-01-23T20:38:27.158Z,20.33
2019-01-23T20:41:28.905Z,20.37
2019-01-23T20:47:13.716Z,21.00
2019-01-23T20:50:15.904Z,20.50
2019-01-23T20:53:16.724Z,21.47
2019-01-23T20:59:03.191Z,21.73
2019-01-23T21:04:48.558Z,26.23
2019-01-23T21:07:48.751Z,21.97
2019-01-23T21:10:49.774Z,21.30
2019-01-23T21:16:36.215Z,20.60
2019-01-23T21:19:37.423Z,21.53
2019-01-23T21:28:47.378Z,19.93
2019-01-23T21:31:47.932Z,18.93
2019-01-23T21:37:33.478Z,18.10
2019-01-23T21:43:19.105Z,19.43
2019-01-23T21:46:20.591Z,20.17
2019-01-23T21:52:05.927Z,19.07
2019-01-23T21:57:52.209Z,19.40
2019-01-23T22:06:43.749Z,18.50
2019-01-23T22:12:29.626Z,20.17
2019-01-23T22:18:15.450Z,19.33
2019-01-23T22:21:21.111Z,18.40
2019-01-23T22:24:22.818Z,19.50
2019-01-23T22:30:08.547Z,19.13
2019-01-23T22:33:09.681Z,19.10
2019-01-23T22:38:55.321Z,19.47
2019-01-23T22:44:40.380Z,18.73
2019-01-23T22:50:25.222Z,18.20
2019-01-23T22:59:20.269Z,19.53
2019-01-23T23:05:07.012Z,19.30
2019-01-23T23:08:07.197Z,19.10
2019-01-23T23:23:56.078Z,20.23
2019-01-23T23:33:19.403Z,19.37
2019-01-23T23:39:05.951Z,19.27
2019-01-23T23:44:50.302Z,19.57
2019-01-23T23:47:50.381Z,19.90
2019-01-23T23:53:35.427Z,19.23
2019-01-23T23:59:20.979Z,20.00
